Time;durP1;ratioP1;P1;durP2;ratioP2;P2;SDS_P1;SDS_P2;PMS_P1;PMS_P2;Temp;Humidity;BMP_temperature;BMP_pressure;BME280_temperature;BME280_humidity;BME280_pressure;Samples;Min_cycle;Max_cycle;Signal;HPM_P1;HPM_P2
2022/12/10 00:00:37;;;;;;;194.98;62.45;;;7.00;99.90;;;;;;5084481;28;20452;-62
2022/12/10 00:03:03;;;;;;;210.55;66.80;;;6.10;99.90;;;;;;5093682;28;20036;-62
2022/12/10 00:05:29;;;;;;;155.55;57.30;;;6.20;99.90;;;;;;5091628;28;20515;-62
2022/12/10 00:07:54;;;;;;;181.32;65.32;;;6.50;99.90;;;;;;5093359;28;20042;-62
2022/12/10 00:10:20;;;;;;;162.13;62.00;;;6.50;99.90;;;;;;5082046;28;20524;-62
2022/12/10 00:12:45;;;;;;;180.32;62.55;;;6.30;99.90;;;;;;5072660;28;20070;-62
2022/12/10 00:15:11;;;;;;;158.30;60.70;;;6.00;99.90;;;;;;5083987;28;20040;-62
2022/12/10 00:17:36;;;;;;;153.73;59.60;;;6.60;99.90;;;;;;5093070;28;20493;-62
2022/12/10 00:20:03;;;;;;;145.27;60.20;;;6.90;99.90;;;;;;5090502;28;20040;-62
2022/12/10 00:22:28;;;;;;;137.45;56.95;;;6.80;99.90;;;;;;5091723;28;20631;-62
2022/12/10 00:24:54;;;;;;;128.18;56.63;;;6.30;99.90;;;;;;5087681;28;20127;-62
2022/12/10 00:27:20;;;;;;;111.75;50.92;;;6.40;99.90;;;;;;5085586;28;20406;-62
2022/12/10 00:29:45;;;;;;;125.20;55.10;;;7.00;99.90;;;;;;5078624;28;20035;-62
2022/12/10 00:32:11;;;;;;;143.48;60.78;;;6.00;99.90;;;;;;5093266;28;20436;-62
2022/12/10 00:34:36;;;;;;;130.50;56.17;;;6.60;99.90;;;;;;5083433;28;20486;-62
2022/12/10 00:37:02;;;;;;;147.00;59.08;;;6.90;99.90;;;;;;5072429;28;20509;-62
2022/12/10 00:39:28;;;;;;;141.82;59.45;;;5.20;99.90;;;;;;5081503;28;20066;-62
2022/12/10 00:41:54;;;;;;;633.55;91.68;;;4.40;99.90;;;;;;5084874;28;20093;-62
2022/12/10 00:44:20;;;;;;;142.32;58.08;;;4.40;99.90;;;;;;5081659;28;20893;-62
2022/12/10 00:46:45;;;;;;;142.52;58.78;;;3.80;99.90;;;;;;5085621;28;20028;-62
2022/12/10 00:49:11;;;;;;;119.70;53.97;;;3.70;99.90;;;;;;5081619;28;20036;-63
2022/12/10 00:51:37;;;;;;;128.50;56.60;;;3.90;99.90;;;;;;5088908;28;20035;-62
2022/12/10 00:54:03;;;;;;;123.40;55.17;;;4.20;99.90;;;;;;5088266;28;20098;-62
2022/12/10 00:56:32;;;;;;;123.63;54.40;;;4.30;99.90;;;;;;5075962;28;20031;-62
2022/12/10 00:58:58;;;;;;;121.10;55.22;;;3.30;99.90;;;;;;5074297;28;20371;-62
2022/12/10 01:01:27;;;;;;;114.47;51.83;;;4.50;99.90;;;;;;5083232;28;20032;-62
2022/12/10 01:03:56;;;;;;;116.97;53.03;;;3.40;99.90;;;;;;5089935;28;20029;-62
2022/12/10 01:06:29;;;;;;;134.57;55.30;;;3.40;99.90;;;;;;5092579;28;20028;-63
2022/12/10 01:09:03;;;;;;;128.07;54.28;;;3.70;99.90;;;;;;5078917;28;20063;-62
2022/12/10 01:11:31;;;;;;;148.70;57.60;;;4.10;99.90;;;;;;5074323;28;20094;-62
2022/12/10 01:13:57;;;;;;;144.77;58.10;;;3.00;99.90;;;;;;5089226;28;20055;-62
2022/12/10 01:16:24;;;;;;;126.13;54.63;;;3.10;99.90;;;;;;5073767;28;20052;-62
2022/12/10 01:18:53;;;;;;;135.02;56.55;;;3.20;99.90;;;;;;5075919;28;20044;-63
2022/12/10 01:21:19;;;;;;;115.80;53.90;;;3.90;99.90;;;;;;5089284;28;20032;-62
2022/12/10 01:23:47;;;;;;;127.50;56.05;;;4.00;99.90;;;;;;5090299;28;20119;-63
2022/12/10 01:26:16;;;;;;;129.65;56.17;;;3.40;99.90;;;;;;5080758;28;20085;-62
2022/12/10 01:28:42;;;;;;;138.43;58.08;;;3.20;99.90;;;;;;5078357;28;20085;-62
2022/12/10 01:31:11;;;;;;;120.60;56.42;;;4.10;99.90;;;;;;5079009;28;20044;-62
2022/12/10 01:33:37;;;;;;;126.10;52.53;;;3.80;99.90;;;;;;5083787;28;20035;-62
2022/12/10 01:36:05;;;;;;;126.10;55.78;;;4.10;99.90;;;;;;5082605;28;20041;-62
2022/12/10 01:38:31;;;;;;;110.47;52.70;;;3.70;99.90;;;;;;5071308;28;20068;-62
2022/12/10 01:40:57;;;;;;;103.68;51.05;;;4.00;99.90;;;;;;5077896;28;20075;-62
2022/12/10 01:43:22;;;;;;;100.35;49.78;;;4.00;99.90;;;;;;5090717;28;20039;-63
2022/12/10 01:45:48;;;;;;;116.85;53.15;;;3.90;99.90;;;;;;5088315;28;20323;-62
2022/12/10 01:48:14;;;;;;;125.05;56.38;;;2.90;99.90;;;;;;5088518;28;20122;-62
2022/12/10 01:50:39;;;;;;;131.35;56.63;;;2.90;99.90;;;;;;5081188;28;20070;-62
2022/12/10 01:53:06;;;;;;;229.00;58.72;;;3.20;99.90;;;;;;5082731;28;20040;-62
2022/12/10 01:55:44;;;;;;;130.55;54.58;;;3.00;99.90;;;;;;5078567;28;20115;-62
2022/12/10 01:58:11;;;;;;;146.95;58.40;;;3.00;99.90;;;;;;5080324;28;20032;-63
2022/12/10 02:00:44;;;;;;;145.05;58.55;;;3.10;99.90;;;;;;5083855;28;20040;-62
2022/12/10 02:03:19;;;;;;;133.45;56.80;;;4.30;99.90;;;;;;5071673;28;20109;-63
2022/12/10 02:05:52;;;;;;;145.13;58.42;;;3.90;99.90;;;;;;5085821;28;20048;-63
2022/12/10 02:08:24;;;;;;;191.13;63.80;;;4.30;99.90;;;;;;5084241;28;20549;-63
2022/12/10 02:10:59;;;;;;;205.40;64.05;;;4.30;99.90;;;;;;5072885;28;20545;-62
2022/12/10 02:13:48;;;;;;;192.95;61.05;;;3.80;99.90;;;;;;5081975;28;20425;-63
2022/12/10 02:16:23;;;;;;;304.63;70.57;;;4.60;99.90;;;;;;5086801;28;20048;-62
2022/12/10 02:19:24;;;;;;;532.97;79.30;;;3.70;99.90;;;;;;5075363;28;20514;-62
2022/12/10 02:21:52;;;;;;;656.28;71.97;;;4.80;99.90;;;;;;5094989;28;20051;-63
2022/12/10 02:24:27;;;;;;;748.75;81.35;;;3.80;99.90;;;;;;5078624;28;20583;-62
2022/12/10 02:27:11;;;;;;;774.85;79.85;;;4.80;99.90;;;;;;5063011;28;20037;-62
2022/12/10 02:29:38;;;;;;;720.65;76.13;;;4.40;99.90;;;;;;5091276;28;20115;-62
2022/12/10 02:32:12;;;;;;;768.90;83.63;;;4.10;99.90;;;;;;5077057;28;20048;-62
2022/12/10 02:34:43;;;;;;;535.58;62.70;;;3.80;99.90;;;;;;5080393;28;20032;-62
2022/12/10 02:37:17;;;;;;;336.80;48.35;;;5.00;99.90;;;;;;5088555;28;20073;-63
2022/12/10 02:39:48;;;;;;;621.50;69.38;;;4.90;99.90;;;;;;5074873;28;20115;-62
2022/12/10 02:42:16;;;;;;;534.20;63.50;;;4.10;99.90;;;;;;5075094;28;20040;-62
2022/12/10 02:44:43;;;;;;;763.95;81.68;;;4.00;99.90;;;;;;5074935;28;20045;-62
2022/12/10 02:47:10;;;;;;;783.92;80.22;;;4.10;99.90;;;;;;5074082;28;20048;-62
2022/12/10 02:49:37;;;;;;;917.20;86.70;;;4.40;99.90;;;;;;5076019;28;20510;-62
2022/12/10 02:52:13;;;;;;;780.85;73.15;;;5.30;99.90;;;;;;5075004;28;20048;-62
2022/12/10 02:54:41;;;;;;;1999.90;299.80;;;5.30;99.90;;;;;;5084423;28;20036;-62
2022/12/10 02:57:31;;;;;;;912.78;89.40;;;4.20;99.90;;;;;;5079685;28;20040;-62
2022/12/10 03:00:09;;;;;;;794.35;80.28;;;4.50;99.90;;;;;;5079512;28;20028;-62
2022/12/10 03:02:46;;;;;;;531.88;60.70;;;4.20;99.90;;;;;;5081743;28;20440;-62
2022/12/10 03:05:45;;;;;;;926.30;87.35;;;5.10;99.90;;;;;;5081755;28;20513;-62
2022/12/10 03:08:32;;;;;;;888.85;89.95;;;5.20;99.90;;;;;;5070498;28;20048;-62
2022/12/10 03:11:14;;;;;;;652.83;66.65;;;4.90;99.90;;;;;;5074528;28;20490;-62
2022/12/10 03:13:59;;;;;;;508.55;57.95;;;5.00;99.90;;;;;;5082802;28;20489;-62
2022/12/10 03:16:31;;;;;;;541.08;55.80;;;5.20;99.90;;;;;;5092418;28;20533;-62
2022/12/10 03:19:02;;;;;;;598.47;61.33;;;5.30;99.90;;;;;;5089082;28;20034;-62
2022/12/10 03:21:29;;;;;;;531.88;50.83;;;4.60;99.90;;;;;;5082848;28;20040;-62
2022/12/10 03:23:55;;;;;;;648.10;62.13;;;5.50;99.90;;;;;;5088782;28;20085;-62
2022/12/10 03:26:22;;;;;;;783.85;74.07;;;4.50;99.90;;;;;;5073788;28;20052;-62
2022/12/10 03:28:54;;;;;;;580.33;57.50;;;4.40;99.90;;;;;;5075376;28;20071;-62
2022/12/10 03:31:20;;;;;;;658.47;70.38;;;4.80;99.90;;;;;;5076230;28;20060;-62
2022/12/10 03:33:48;;;;;;;1788.75;165.07;;;5.50;99.90;;;;;;5074005;28;20060;-62
2022/12/10 03:36:14;;;;;;;737.22;71.60;;;5.40;99.90;;;;;;5079180;28;20044;-62
2022/12/10 03:38:40;;;;;;;714.17;71.22;;;4.70;99.90;;;;;;5076379;28;20068;-62
2022/12/10 03:41:06;;;;;;;443.80;48.80;;;5.90;99.90;;;;;;5092450;28;20036;-62
2022/12/10 03:43:32;;;;;;;638.30;70.53;;;5.40;99.90;;;;;;5083664;28;20037;-64
2022/12/10 03:45:57;;;;;;;665.47;65.60;;;4.80;99.90;;;;;;5093605;28;20489;-62
2022/12/10 03:48:23;;;;;;;623.70;61.40;;;6.00;99.90;;;;;;5087149;28;20549;-62
2022/12/10 03:50:49;;;;;;;601.42;57.45;;;6.00;99.90;;;;;;5075990;28;20459;-62
2022/12/10 03:53:14;;;;;;;342.23;41.45;;;4.70;99.90;;;;;;5074897;28;20039;-62
2022/12/10 03:55:40;;;;;;;586.15;58.17;;;5.80;99.90;;;;;;5090699;28;20097;-62
2022/12/10 03:58:05;;;;;;;410.67;43.38;;;5.00;99.90;;;;;;5091500;28;20412;-62
2022/12/10 04:00:31;;;;;;;390.25;38.35;;;5.90;99.90;;;;;;5089559;28;20058;-62
2022/12/10 04:02:57;;;;;;;410.55;39.03;;;5.00;99.90;;;;;;5092083;28;20032;-62
2022/12/10 04:05:22;;;;;;;546.47;50.15;;;6.00;99.90;;;;;;5088799;28;20457;-62
2022/12/10 04:07:48;;;;;;;540.75;49.78;;;6.00;99.90;;;;;;5093316;28;20040;-62
2022/12/10 04:10:13;;;;;;;649.33;60.38;;;4.80;99.90;;;;;;5076722;28;20037;-62
2022/12/10 04:12:39;;;;;;;508.38;45.55;;;6.00;99.90;;;;;;5082018;28;20039;-62
2022/12/10 04:17:49;;;;;;;526.95;44.92;;;5.50;99.90;;;;;;5072925;28;20139;-62
2022/12/10 04:28:28;;;;;;;351.58;38.20;;;6.00;99.90;;;;;;5089193;28;20051;-62
2022/12/10 04:30:54;;;;;;;624.13;53.78;;;6.00;99.90;;;;;;5089735;28;20024;-62
2022/12/10 04:33:19;;;;;;;560.03;48.50;;;6.00;99.90;;;;;;5091156;28;20126;-62
2022/12/10 04:35:45;;;;;;;385.85;32.30;;;4.70;99.90;;;;;;5081966;28;20033;-62
2022/12/10 04:38:10;;;;;;;317.17;34.90;;;5.60;99.90;;;;;;5072847;28;20039;-62
2022/12/10 04:40:36;;;;;;;448.80;36.30;;;4.60;99.90;;;;;;5074604;28;20479;-62
2022/12/10 04:43:01;;;;;;;343.05;33.47;;;6.00;99.90;;;;;;5072604;28;20040;-62
2022/12/10 04:45:27;;;;;;;591.38;49.65;;;5.90;99.90;;;;;;5076502;28;20072;-62
2022/12/10 04:47:52;;;;;;;430.60;38.15;;;6.00;99.90;;;;;;5082659;28;20037;-62
2022/12/10 04:50:18;;;;;;;652.95;51.67;;;5.90;99.90;;;;;;5079203;28;20043;-62
2022/12/10 04:52:43;;;;;;;572.22;47.72;;;4.70;99.90;;;;;;5092680;28;20075;-62
2022/12/10 04:55:09;;;;;;;707.72;56.28;;;6.00;99.90;;;;;;5081615;28;20041;-62
2022/12/10 04:57:35;;;;;;;678.90;53.78;;;4.70;99.90;;;;;;5072362;28;20040;-62
2022/12/10 05:00:00;;;;;;;554.53;46.75;;;5.00;99.90;;;;;;5088120;28;20078;-62
2022/12/10 05:02:26;;;;;;;545.03;43.95;;;5.30;99.90;;;;;;5074519;28;20547;-62
2022/12/10 05:04:51;;;;;;;607.72;49.22;;;5.30;99.90;;;;;;5079257;28;20494;-62
2022/12/10 05:07:17;;;;;;;675.25;53.55;;;4.70;99.90;;;;;;5090808;28;20040;-62
2022/12/10 05:09:42;;;;;;;640.65;47.20;;;5.40;99.90;;;;;;5088306;28;20155;-62
2022/12/10 05:12:08;;;;;;;673.17;52.88;;;5.50;99.90;;;;;;5090940;28;20036;-62
2022/12/10 05:14:33;;;;;;;442.25;34.33;;;5.00;99.90;;;;;;5089903;28;20119;-62
2022/12/10 05:16:59;;;;;;;493.35;41.22;;;6.00;99.90;;;;;;5090982;28;20043;-62
2022/12/10 05:19:27;;;;;;;459.52;36.25;;;5.90;99.90;;;;;;5076028;28;20048;-62
2022/12/10 05:24:37;;;;;;;493.45;43.45;;;4.60;99.90;;;;;;5079863;28;20517;-62
2022/12/10 05:27:03;;;;;;;532.72;41.72;;;5.40;99.90;;;;;;5085521;28;20406;-64
2022/12/10 05:29:29;;;;;;;572.75;49.88;;;5.00;99.90;;;;;;5083654;28;20024;-62
2022/12/10 05:31:55;;;;;;;617.00;51.17;;;4.60;99.90;;;;;;5080692;28;20031;-62
2022/12/10 05:34:20;;;;;;;1999.90;172.82;;;4.60;99.90;;;;;;5079005;28;20031;-62
2022/12/10 05:36:46;;;;;;;377.45;38.42;;;5.80;99.90;;;;;;5079999;28;20038;-62
2022/12/10 05:39:11;;;;;;;508.10;43.47;;;4.60;99.90;;;;;;5075525;28;20024;-62
2022/12/10 05:41:38;;;;;;;244.07;25.25;;;5.80;99.90;;;;;;5072891;28;20448;-62
2022/12/10 05:44:05;;;;;;;417.50;38.05;;;5.80;99.90;;;;;;5078657;28;20036;-62
2022/12/10 05:46:32;;;;;;;506.58;44.78;;;4.40;99.90;;;;;;5091114;28;20506;-62
2022/12/10 05:48:59;;;;;;;404.80;37.45;;;4.50;99.90;;;;;;5087985;28;20024;-62
2022/12/10 05:51:29;;;;;;;546.83;47.95;;;5.90;99.90;;;;;;5079739;28;20116;-62
2022/12/10 05:53:54;;;;;;;334.85;33.92;;;4.60;99.90;;;;;;5075640;28;20068;-62
2022/12/10 05:56:23;;;;;;;334.92;34.15;;;4.80;99.90;;;;;;5077280;28;20091;-62
2022/12/10 05:58:51;;;;;;;341.83;34.95;;;6.00;99.90;;;;;;5076861;28;20032;-62
2022/12/10 06:01:20;;;;;;;444.15;42.40;;;4.90;99.90;;;;;;5081539;28;20041;-62
2022/12/10 06:03:46;;;;;;;398.10;39.22;;;5.80;99.90;;;;;;5077154;28;20470;-62
2022/12/10 06:06:12;;;;;;;414.95;41.65;;;5.70;99.90;;;;;;5083299;28;20040;-62
2022/12/10 06:08:38;;;;;;;586.90;51.05;;;6.10;99.90;;;;;;5076485;28;20044;-63
2022/12/10 06:11:06;;;;;;;644.05;58.45;;;5.80;99.90;;;;;;5092829;28;20537;-62
2022/12/10 06:13:32;;;;;;;638.20;56.08;;;4.70;99.90;;;;;;5066100;28;20044;-63
2022/12/10 06:15:57;;;;;;;871.28;81.22;;;4.70;99.90;;;;;;5079090;28;20138;-62
2022/12/10 06:18:23;;;;;;;594.25;53.90;;;5.90;99.90;;;;;;5082775;28;20096;-62
2022/12/10 06:20:49;;;;;;;424.42;44.78;;;4.90;99.90;;;;;;5089713;28;20478;-62
2022/12/10 06:23:15;;;;;;;381.85;39.25;;;5.00;99.90;;;;;;5084244;28;20081;-62
2022/12/10 06:25:40;;;;;;;482.80;46.22;;;5.50;99.90;;;;;;5075218;28;20071;-62
2022/12/10 06:28:07;;;;;;;576.75;54.30;;;5.00;99.90;;;;;;5087865;28;20028;-62
2022/12/10 06:30:34;;;;;;;679.08;56.00;;;6.00;99.90;;;;;;5093734;28;20051;-62
2022/12/10 06:33:00;;;;;;;629.55;55.75;;;4.90;99.90;;;;;;5092388;28;20043;-62
2022/12/10 06:35:25;;;;;;;330.90;34.92;;;4.60;99.90;;;;;;5089968;28;20024;-62
2022/12/10 06:37:51;;;;;;;359.63;38.17;;;6.00;99.90;;;;;;5086504;28;20064;-62
2022/12/10 06:40:18;;;;;;;319.58;34.05;;;5.10;99.90;;;;;;5089515;28;20078;-62
2022/12/10 06:42:43;;;;;;;507.60;48.58;;;4.60;99.90;;;;;;5091902;28;20485;-62
2022/12/10 06:45:10;;;;;;;591.90;56.25;;;4.70;99.90;;;;;;5092925;28;20040;-62
2022/12/10 06:47:35;;;;;;;586.28;52.30;;;5.60;99.90;;;;;;5079624;28;20131;-62
2022/12/10 06:50:02;;;;;;;613.22;56.92;;;6.10;99.90;;;;;;5089858;28;20138;-62
2022/12/10 06:52:27;;;;;;;570.58;53.28;;;4.50;99.90;;;;;;5092733;28;20067;-62
2022/12/10 06:54:54;;;;;;;1649.88;158.85;;;5.40;99.90;;;;;;5093349;28;20063;-62
2022/12/10 06:57:21;;;;;;;528.05;50.80;;;4.80;99.90;;;;;;5091965;28;20039;-62
2022/12/10 06:59:46;;;;;;;624.45;60.13;;;6.00;99.90;;;;;;5081531;28;20040;-62
2022/12/10 07:02:12;;;;;;;384.40;41.78;;;6.10;99.90;;;;;;5073732;28;20036;-62
2022/12/10 07:04:38;;;;;;;545.65;50.28;;;4.80;99.90;;;;;;5076904;28;20498;-62
2022/12/10 07:07:06;;;;;;;733.38;64.47;;;5.40;99.90;;;;;;5077119;28;20068;-62
2022/12/10 07:09:32;;;;;;;717.45;66.63;;;5.90;99.90;;;;;;5088646;28;20036;-62
2022/12/10 07:11:57;;;;;;;704.17;61.55;;;5.90;99.90;;;;;;5091273;28;20081;-62
2022/12/10 07:14:23;;;;;;;425.83;44.72;;;6.10;99.90;;;;;;5082397;28;20448;-62
2022/12/10 07:16:49;;;;;;;518.08;49.58;;;4.80;99.90;;;;;;5074517;28;20414;-62
2022/12/10 07:19:14;;;;;;;476.60;46.45;;;6.10;99.90;;;;;;5092265;28;20409;-62
2022/12/10 07:21:42;;;;;;;490.20;46.25;;;4.80;99.90;;;;;;5089195;28;20032;-63
2022/12/10 07:24:11;;;;;;;436.08;45.03;;;5.80;99.90;;;;;;5087223;28;20043;-62
2022/12/10 07:26:39;;;;;;;404.02;42.15;;;6.30;99.90;;;;;;5094459;28;20075;-62
2022/12/10 07:29:07;;;;;;;606.35;56.90;;;6.30;99.90;;;;;;5086770;28;20052;-63
2022/12/10 07:31:33;;;;;;;556.00;57.20;;;6.20;99.90;;;;;;5091453;28;20501;-62
2022/12/10 07:33:59;;;;;;;567.63;55.05;;;6.10;99.90;;;;;;5091971;28;20028;-62
2022/12/10 07:36:25;;;;;;;572.63;55.90;;;4.90;99.90;;;;;;5093107;28;20392;-62
2022/12/10 07:38:52;;;;;;;733.88;76.75;;;5.90;99.90;;;;;;5088556;28;20048;-62
2022/12/10 07:41:18;;;;;;;523.50;50.28;;;5.10;99.90;;;;;;5079518;28;20115;-62
2022/12/10 07:43:45;;;;;;;311.60;37.95;;;5.10;99.90;;;;;;5073867;28;20115;-62
2022/12/10 07:46:14;;;;;;;385.27;47.80;;;5.30;99.90;;;;;;5072786;28;20068;-62
2022/12/10 07:48:41;;;;;;;450.80;47.00;;;5.00;99.90;;;;;;5073513;28;20090;-62
2022/12/10 07:51:07;;;;;;;521.20;54.50;;;5.00;99.90;;;;;;5089065;28;20051;-62
2022/12/10 07:53:33;;;;;;;574.97;57.75;;;5.10;99.90;;;;;;5092243;28;20170;-62
2022/12/10 07:55:59;;;;;;;678.42;67.50;;;6.20;99.90;;;;;;5091648;28;20115;-62
2022/12/10 07:58:24;;;;;;;636.58;64.68;;;5.90;99.90;;;;;;5085953;28;20387;-63
2022/12/10 08:00:50;;;;;;;478.60;54.45;;;6.30;99.90;;;;;;5080377;28;20425;-62
2022/12/10 08:03:16;;;;;;;408.75;44.55;;;5.30;99.90;;;;;;5085487;28;20449;-62
2022/12/10 08:05:41;;;;;;;241.85;33.70;;;5.40;99.90;;;;;;5074137;28;20445;-62
2022/12/10 08:08:07;;;;;;;355.85;41.25;;;6.50;99.90;;;;;;5079758;28;20043;-62
2022/12/10 08:10:36;;;;;;;300.90;37.25;;;5.00;99.90;;;;;;5085508;28;20050;-62
2022/12/10 08:13:03;;;;;;;461.65;46.78;;;5.70;99.90;;;;;;5085185;28;20082;-62
2022/12/10 08:15:29;;;;;;;309.30;40.80;;;5.50;99.90;;;;;;5089897;28;20043;-62
2022/12/10 08:17:55;;;;;;;433.75;46.13;;;6.00;99.90;;;;;;5089365;28;20056;-62
2022/12/10 08:20:22;;;;;;;355.63;42.42;;;6.50;99.90;;;;;;5079364;28;20047;-62
2022/12/10 08:22:48;;;;;;;548.45;55.47;;;5.60;99.90;;;;;;5086834;28;20044;-62
2022/12/10 08:25:13;;;;;;;511.90;54.33;;;6.40;99.90;;;;;;5076633;28;20425;-63
2022/12/10 08:27:39;;;;;;;633.85;65.03;;;5.20;99.90;;;;;;5082524;28;20032;-62
2022/12/10 08:30:05;;;;;;;1999.90;214.13;;;6.40;99.90;;;;;;5090772;28;20036;-62
2022/12/10 08:32:30;;;;;;;576.42;61.25;;;6.50;99.90;;;;;;5092515;28;20413;-62
2022/12/10 08:34:56;;;;;;;629.90;65.82;;;5.30;99.90;;;;;;5090059;28;20036;-62
2022/12/10 08:37:21;;;;;;;235.70;34.17;;;6.60;99.90;;;;;;5073980;28;20490;-63
2022/12/10 08:39:47;;;;;;;389.35;45.50;;;6.60;99.90;;;;;;5084026;28;20120;-62
2022/12/10 08:42:13;;;;;;;368.67;48.13;;;6.30;99.90;;;;;;5084457;28;20036;-62
2022/12/10 08:44:39;;;;;;;528.88;60.70;;;6.60;99.90;;;;;;5074733;28;20044;-62
2022/12/10 08:47:05;;;;;;;521.65;60.80;;;5.40;99.90;;;;;;5073603;28;20445;-62
2022/12/10 08:49:31;;;;;;;494.95;57.85;;;5.80;99.90;;;;;;5083723;28;20029;-62
2022/12/10 08:51:56;;;;;;;615.13;70.30;;;6.80;99.90;;;;;;5075471;28;20082;-63
2022/12/10 08:54:22;;;;;;;643.35;64.43;;;5.50;99.90;;;;;;5083922;28;20037;-62
2022/12/10 08:56:47;;;;;;;579.03;62.47;;;5.50;99.90;;;;;;5081147;28;20042;-62
2022/12/10 08:59:13;;;;;;;464.02;54.45;;;5.70;99.90;;;;;;5073363;28;20072;-62
2022/12/10 09:01:39;;;;;;;329.35;45.42;;;4.70;99.90;;;;;;5073287;28;20387;-62
2022/12/10 09:04:04;;;;;;;360.05;47.00;;;5.40;99.90;;;;;;5072162;28;20103;-62
2022/12/10 09:06:30;;;;;;;401.60;48.42;;;4.20;99.90;;;;;;5081563;28;20481;-62
2022/12/10 09:08:56;;;;;;;529.22;58.50;;;4.10;99.90;;;;;;5080251;28;20058;-62
2022/12/10 09:11:31;;;;;;;414.85;49.53;;;5.30;99.90;;;;;;5072672;28;20032;-62
2022/12/10 09:13:57;;;;;;;354.55;45.25;;;5.00;99.90;;;;;;5079510;28;20039;-62
2022/12/10 09:16:32;;;;;;;359.77;42.08;;;4.20;99.90;;;;;;5087094;28;20055;-62
2022/12/10 09:18:58;;;;;;;653.42;67.53;;;5.70;99.90;;;;;;5080822;28;20040;-62
2022/12/10 09:21:24;;;;;;;578.10;58.50;;;4.80;99.90;;;;;;5089864;28;20068;-62
2022/12/10 09:23:51;;;;;;;664.70;65.85;;;5.10;99.90;;;;;;5074994;28;20068;-62
2022/12/10 09:26:17;;;;;;;597.20;66.82;;;5.60;99.90;;;;;;5076762;28;20032;-62
2022/12/10 09:28:45;;;;;;;502.77;59.22;;;5.60;99.90;;;;;;5090146;28;20040;-62
2022/12/10 09:31:12;;;;;;;649.35;69.25;;;5.90;99.90;;;;;;5090401;28;20493;-62
2022/12/10 09:33:38;;;;;;;533.55;56.00;;;5.40;99.90;;;;;;5083545;28;20125;-62
2022/12/10 09:36:06;;;;;;;520.33;57.38;;;4.40;99.90;;;;;;5082621;28;20032;-63
2022/12/10 09:38:34;;;;;;;178.82;34.35;;;4.70;99.90;;;;;;5083293;28;20044;-62
2022/12/10 09:41:04;;;;;;;560.88;68.85;;;5.80;99.90;;;;;;5083797;28;20040;-62
2022/12/10 09:43:46;;;;;;;515.60;60.05;;;5.20;99.90;;;;;;5077184;28;20041;-63
2022/12/10 09:46:50;;;;;;;665.92;71.03;;;5.00;99.90;;;;;;5081675;28;20043;-63
2022/12/10 09:49:39;;;;;;;832.70;77.95;;;4.30;99.90;;;;;;5078958;28;20028;-63
2022/12/10 09:52:09;;;;;;;497.98;57.88;;;5.70;99.90;;;;;;5085357;28;20048;-63
2022/12/10 09:54:45;;;;;;;447.83;54.42;;;5.60;99.90;;;;;;5083468;28;20051;-62
2022/12/10 09:57:27;;;;;;;616.80;63.13;;;4.20;99.90;;;;;;5081813;28;20031;-64
2022/12/10 09:59:53;;;;;;;490.10;48.75;;;4.40;99.90;;;;;;5086322;28;20036;-62
2022/12/10 10:02:29;;;;;;;380.00;48.55;;;4.60;99.90;;;;;;5084646;28;20117;-62
2022/12/10 10:05:06;;;;;;;932.30;91.33;;;5.60;99.90;;;;;;5080718;28;20071;-63
2022/12/10 10:07:44;;;;;;;417.10;57.03;;;5.60;99.90;;;;;;5077562;28;20283;-64
2022/12/10 10:10:22;;;;;;;614.20;64.88;;;5.50;99.90;;;;;;5076524;28;20486;-63
2022/12/10 10:12:51;;;;;;;666.78;68.30;;;5.90;99.90;;;;;;5079332;28;20036;-63
2022/12/10 10:15:21;;;;;;;456.90;57.40;;;4.60;99.90;;;;;;5079143;28;20044;-63
2022/12/10 10:17:49;;;;;;;430.25;57.20;;;5.60;99.90;;;;;;5076825;28;20501;-63
2022/12/10 10:20:15;;;;;;;295.30;47.78;;;4.50;99.90;;;;;;5080288;28;20040;-62
2022/12/10 10:22:40;;;;;;;495.73;55.15;;;4.20;99.90;;;;;;5081967;28;20496;-63
2022/12/10 10:25:17;;;;;;;321.38;43.47;;;4.20;99.90;;;;;;5082561;28;20463;-63
2022/12/10 10:27:42;;;;;;;178.60;31.75;;;5.00;99.90;;;;;;5077330;28;20040;-62
2022/12/10 10:30:16;;;;;;;1264.25;121.25;;;4.70;99.90;;;;;;5075625;28;20024;-63
2022/12/10 10:32:41;;;;;;;489.20;60.88;;;5.40;99.90;;;;;;5084708;28;20439;-62
2022/12/10 10:35:21;;;;;;;474.55;56.80;;;5.80;99.90;;;;;;5088246;28;20119;-64
2022/12/10 10:37:47;;;;;;;290.58;55.38;;;5.80;99.90;;;;;;5085706;28;20102;-63
2022/12/10 10:40:23;;;;;;;266.75;56.35;;;4.50;99.90;;;;;;5092085;28;20036;-63
2022/12/10 10:42:53;;;;;;;209.10;53.95;;;4.80;99.90;;;;;;5084670;28;20528;-63
2022/12/10 10:45:49;;;;;;;175.90;52.80;;;5.00;99.90;;;;;;5079550;28;20109;-63
2022/12/10 10:48:17;;;;;;;149.95;48.78;;;5.90;99.90;;;;;;5079679;28;20044;-63
2022/12/10 10:50:46;;;;;;;143.50;47.42;;;5.90;99.90;;;;;;5084425;28;20044;-62
2022/12/10 10:53:32;;;;;;;171.40;50.08;;;4.70;99.90;;;;;;5083407;28;20039;-63
2022/12/10 10:56:08;;;;;;;122.30;42.70;;;5.40;99.90;;;;;;5078912;28;20486;-63
2022/12/10 10:58:35;;;;;;;128.30;45.13;;;4.40;99.90;;;;;;5086053;28;20044;-63
2022/12/10 11:01:06;;;;;;;161.88;48.22;;;4.60;99.90;;;;;;5078493;28;20120;-63
2022/12/10 11:03:35;;;;;;;141.98;45.83;;;5.50;99.90;;;;;;5085292;28;20044;-63
2022/12/10 11:06:04;;;;;;;156.68;47.83;;;6.10;99.90;;;;;;5083421;28;20560;-63
2022/12/10 11:08:31;;;;;;;1569.80;140.50;;;5.70;99.90;;;;;;5090647;28;20378;-63
2022/12/10 11:11:16;;;;;;;157.18;48.55;;;5.50;99.90;;;;;;5087343;28;20032;-63
2022/12/10 11:13:42;;;;;;;159.45;48.58;;;5.50;99.90;;;;;;5076613;28;20116;-63
2022/12/10 11:16:18;;;;;;;143.05;45.45;;;6.40;99.90;;;;;;5075778;28;20140;-63
2022/12/10 11:19:04;;;;;;;142.20;46.38;;;6.40;99.90;;;;;;5077000;28;20042;-63
2022/12/10 11:21:34;;;;;;;131.10;43.83;;;6.10;99.90;;;;;;5076394;28;20047;-64
2022/12/10 11:24:03;;;;;;;144.65;47.58;;;4.70;99.90;;;;;;5086986;28;20032;-63
2022/12/10 11:26:47;;;;;;;132.43;44.60;;;6.40;99.90;;;;;;5074197;28;20047;-63
2022/12/10 11:29:40;;;;;;;113.70;41.97;;;6.20;99.90;;;;;;5092306;28;20090;-63
2022/12/10 11:32:21;;;;;;;74.82;33.20;;;4.80;99.90;;;;;;5085548;28;20043;-62
2022/12/10 11:35:01;;;;;;;83.43;33.83;;;5.70;99.90;;;;;;5089998;28;20440;-63
2022/12/10 11:37:57;;;;;;;105.32;39.78;;;6.50;99.90;;;;;;5090358;28;20514;-62
2022/12/10 11:40:47;;;;;;;103.63;40.57;;;5.00;99.90;;;;;;5074846;28;20123;-62
2022/12/10 11:43:24;;;;;;;100.57;38.70;;;6.50;99.90;;;;;;5079047;28;20067;-63
2022/12/10 11:46:21;;;;;;;94.20;37.17;;;6.50;99.90;;;;;;5073824;28;20052;-63
2022/12/10 11:49:15;;;;;;;126.07;39.53;;;6.30;99.90;;;;;;5075044;28;20044;-63
2022/12/10 11:52:01;;;;;;;104.70;40.70;;;5.10;99.90;;;;;;5088972;28;20044;-62
2022/12/10 11:54:57;;;;;;;89.35;38.42;;;5.10;99.90;;;;;;5091956;28;20036;-62
2022/12/10 11:57:46;;;;;;;86.03;33.97;;;6.60;99.90;;;;;;5091431;28;20101;-62
2022/12/10 12:00:11;;;;;;;128.40;42.15;;;6.40;99.90;;;;;;5090918;28;20125;-63
2022/12/10 12:02:46;;;;;;;98.97;39.47;;;5.90;99.90;;;;;;5089310;28;20076;-63
2022/12/10 12:05:29;;;;;;;89.95;37.53;;;5.20;99.90;;;;;;5074117;28;20049;-63
2022/12/10 12:08:17;;;;;;;102.97;40.05;;;5.60;99.90;;;;;;5077185;28;20127;-62
2022/12/10 12:11:00;;;;;;;75.15;33.10;;;5.10;99.90;;;;;;5082778;28;20068;-62
2022/12/10 12:13:38;;;;;;;87.70;36.70;;;5.00;99.90;;;;;;5087636;28;20470;-62
2022/12/10 12:16:29;;;;;;;81.55;34.40;;;5.00;99.90;;;;;;5082522;28;20064;-62
2022/12/10 12:19:09;;;;;;;92.68;36.05;;;6.80;99.90;;;;;;5084842;28;20509;-63
2022/12/10 12:21:36;;;;;;;117.13;43.25;;;5.20;99.90;;;;;;5081749;28;20036;-62
2022/12/10 12:24:14;;;;;;;121.03;42.15;;;6.70;99.90;;;;;;5083731;28;20466;-62
2022/12/10 12:26:48;;;;;;;101.68;40.50;;;6.60;99.90;;;;;;5088982;28;20036;-63
2022/12/10 12:29:33;;;;;;;1049.90;105.60;;;5.10;99.90;;;;;;5085989;28;20036;-64
2022/12/10 12:32:09;;;;;;;97.47;36.85;;;5.20;99.90;;;;;;5082783;28;20142;-62
2022/12/10 12:34:58;;;;;;;83.47;35.35;;;5.40;99.90;;;;;;5083636;28;20047;-62
2022/12/10 12:37:32;;;;;;;72.07;33.13;;;5.50;99.90;;;;;;5082590;28;20032;-62
2022/12/10 12:40:02;;;;;;;97.03;36.15;;;6.80;99.90;;;;;;5086130;28;21498;-62
2022/12/10 12:42:46;;;;;;;105.60;39.97;;;6.40;99.90;;;;;;5081803;28;20036;-62
2022/12/10 12:45:40;;;;;;;106.65;39.38;;;6.90;99.90;;;;;;5083872;28;20036;-63
2022/12/10 12:48:28;;;;;;;122.40;41.67;;;6.80;99.90;;;;;;5085838;28;20139;-62
2022/12/10 12:51:34;;;;;;;111.20;39.47;;;6.10;99.90;;;;;;5084847;28;20118;-62
2022/12/10 12:54:00;;;;;;;107.53;39.65;;;5.40;99.90;;;;;;5062713;28;20052;-63